Time;durP1;ratioP1;P1;durP2;ratioP2;P2;SDS_P1;SDS_P2;PMS_P1;PMS_P2;Temp;Humidity;BMP_temperature;BMP_pressure;BME280_temperature;BME280_humidity;BME280_pressure;Samples;Min_cycle;Max_cycle;Signal;HPM_P1;HPM_P2
2022/05/30 00:01:37;;;;;;;4.60;1.60;;;13.90;99.90;;;;;;4126438;28;20034;-69
2022/05/30 00:03:39;;;;;;;6.68;1.63;;;13.80;99.90;;;;;;4128451;28;20027;-69
2022/05/30 00:05:46;;;;;;;5.07;1.55;;;13.80;99.90;;;;;;4126966;28;20121;-69
2022/05/30 00:07:46;;;;;;;3.28;1.17;;;13.80;99.90;;;;;;4126909;28;20030;-69
2022/05/30 00:09:48;;;;;;;5.97;1.50;;;13.80;99.90;;;;;;4123497;28;20046;-69
2022/05/30 00:11:50;;;;;;;5.95;1.42;;;13.80;99.90;;;;;;4127183;28;20030;-69
2022/05/30 00:13:50;;;;;;;5.75;1.75;;;13.80;99.90;;;;;;4130201;28;20065;-69
2022/05/30 00:15:51;;;;;;;7.45;2.05;;;13.80;99.90;;;;;;4128585;28;20117;-69
2022/05/30 00:17:56;;;;;;;5.93;1.95;;;13.80;99.90;;;;;;4132479;28;20169;-69
2022/05/30 00:19:57;;;;;;;3.95;1.40;;;13.80;99.90;;;;;;4131655;28;20030;-69
2022/05/30 00:21:57;;;;;;;7.20;1.80;;;13.80;99.90;;;;;;4130533;28;20030;-69
2022/05/30 00:23:58;;;;;;;6.63;1.63;;;13.80;99.90;;;;;;4132246;28;20086;-69
2022/05/30 00:25:59;;;;;;;4.80;1.73;;;13.80;99.90;;;;;;4131477;28;20030;-69
2022/05/30 00:27:59;;;;;;;3.13;1.25;;;13.80;99.90;;;;;;4132369;28;20034;-69
2022/05/30 00:30:00;;;;;;;4.38;1.10;;;13.80;99.90;;;;;;4146819;28;20046;-69
2022/05/30 00:32:01;;;;;;;4.00;1.23;;;13.80;99.90;;;;;;4131476;28;20503;-69
2022/05/30 00:34:02;;;;;;;3.53;1.20;;;13.80;99.90;;;;;;4131685;28;20058;-69
2022/05/30 00:36:04;;;;;;;4.45;1.45;;;13.80;99.90;;;;;;4114264;28;20093;-69
2022/05/30 00:38:05;;;;;;;7.25;1.90;;;13.80;99.90;;;;;;4140135;28;20046;-69
2022/05/30 00:40:06;;;;;;;5.57;1.50;;;13.80;99.90;;;;;;4131333;28;20437;-69
2022/05/30 00:42:26;;;;;;;4.87;1.40;;;13.80;99.90;;;;;;4131367;28;20035;-69
2022/05/30 00:44:26;;;;;;;4.82;1.27;;;13.80;99.90;;;;;;4121179;28;20264;-69
2022/05/30 00:46:27;;;;;;;4.43;1.42;;;13.80;99.90;;;;;;4124932;28;20105;-69
2022/05/30 00:48:36;;;;;;;3.53;1.40;;;13.80;99.90;;;;;;4129467;28;20030;-69
2022/05/30 00:50:38;;;;;;;3.88;1.27;;;13.80;99.90;;;;;;4128541;28;20066;-69
2022/05/30 00:52:43;;;;;;;6.75;1.85;;;13.80;99.90;;;;;;4144869;28;20100;-69
2022/05/30 00:54:50;;;;;;;7.95;1.90;;;13.80;99.90;;;;;;4128948;28;20035;-69
2022/05/30 00:56:54;;;;;;;3.97;1.33;;;13.90;99.90;;;;;;4127063;28;20046;-69
2022/05/30 00:58:55;;;;;;;7.38;1.67;;;13.80;99.90;;;;;;4129253;28;20034;-69
2022/05/30 01:00:56;;;;;;;5.22;1.40;;;13.80;99.90;;;;;;4129050;28;20436;-67
2022/05/30 01:07:37;;;;;;;5.00;1.63;;;13.80;99.90;;;;;;4129521;28;20034;-67
2022/05/30 01:09:44;;;;;;;3.90;1.20;;;13.80;99.90;;;;;;4129780;28;20042;-67
2022/05/30 01:11:56;;;;;;;4.80;1.70;;;13.80;99.90;;;;;;4128797;28;20438;-67
2022/05/30 01:13:57;;;;;;;8.50;1.88;;;13.80;99.90;;;;;;4129258;28;20057;-67
2022/05/30 01:15:57;;;;;;;4.18;1.38;;;13.80;99.90;;;;;;4119652;28;20057;-67
2022/05/30 01:17:58;;;;;;;3.00;1.15;;;13.80;99.90;;;;;;4144131;28;20033;-67
2022/05/30 01:20:05;;;;;;;5.80;1.75;;;13.80;99.90;;;;;;4129606;28;20048;-67
2022/05/30 01:22:33;;;;;;;2.90;1.20;;;13.80;99.90;;;;;;4123534;28;20492;-67
2022/05/30 01:24:48;;;;;;;4.70;1.73;;;13.80;99.90;;;;;;4129153;28;20142;-67
2022/05/30 01:27:07;;;;;;;4.55;1.77;;;13.80;99.90;;;;;;4123428;28;20026;-67
2022/05/30 01:29:14;;;;;;;5.43;1.60;;;13.80;99.90;;;;;;4129118;28;20395;-67
2022/05/30 01:31:16;;;;;;;5.05;1.70;;;13.80;99.90;;;;;;4128404;28;20065;-67
2022/05/30 01:33:17;;;;;;;6.20;1.83;;;13.70;99.90;;;;;;4128411;28;20069;-67
2022/05/30 01:35:23;;;;;;;8.13;2.00;;;13.60;99.90;;;;;;4128849;28;20045;-67
2022/05/30 01:37:24;;;;;;;9.60;2.38;;;13.50;99.90;;;;;;4127463;28;20038;-67
2022/05/30 01:39:24;;;;;;;12.85;2.35;;;13.40;99.90;;;;;;4127604;28;20412;-67
2022/05/30 01:41:25;;;;;;;5.70;1.70;;;13.30;99.90;;;;;;4127241;28;20133;-67
2022/05/30 01:43:26;;;;;;;7.60;2.20;;;13.30;99.90;;;;;;4129547;28;20165;-67
2022/05/30 01:45:27;;;;;;;4.55;1.42;;;13.30;99.90;;;;;;4128407;28;20042;-67
2022/05/30 01:47:28;;;;;;;3.60;1.25;;;13.30;99.90;;;;;;4128949;28;20026;-67
2022/05/30 01:49:28;;;;;;;3.92;1.50;;;13.30;99.90;;;;;;4128885;28;20038;-67
2022/05/30 01:51:29;;;;;;;8.65;1.75;;;13.30;99.90;;;;;;4128402;28;20105;-67
2022/05/30 01:53:30;;;;;;;6.47;1.75;;;13.30;99.90;;;;;;4129438;28;20515;-67
2022/05/30 01:55:31;;;;;;;4.53;1.70;;;13.40;99.90;;;;;;4128550;28;20038;-67
2022/05/30 01:57:32;;;;;;;4.85;1.58;;;13.30;99.90;;;;;;4128891;28;20042;-67
2022/05/30 01:59:32;;;;;;;7.80;1.60;;;13.30;99.90;;;;;;4129037;28;20039;-67
2022/05/30 02:01:33;;;;;;;6.97;1.90;;;13.30;99.90;;;;;;4128637;28;20034;-67
2022/05/30 02:03:34;;;;;;;5.05;1.65;;;13.30;99.90;;;;;;4128809;28;20118;-67
2022/05/30 02:05:34;;;;;;;6.18;1.80;;;13.30;99.90;;;;;;4128863;28;20518;-67
2022/05/30 02:07:35;;;;;;;6.10;1.50;;;13.20;99.90;;;;;;4129311;28;25278;-67
2022/05/30 02:09:35;;;;;;;7.43;1.85;;;13.20;99.90;;;;;;4121572;28;20034;-66
2022/05/30 02:11:37;;;;;;;7.40;2.00;;;13.20;99.90;;;;;;4128222;28;20081;-66
2022/05/30 02:13:38;;;;;;;5.97;1.48;;;13.30;99.90;;;;;;4129006;28;20038;-66
2022/05/30 02:17:58;;;;;;;5.05;1.60;;;13.20;99.90;;;;;;4125042;28;20038;-66
2022/05/30 02:19:58;;;;;;;4.00;1.23;;;13.20;99.90;;;;;;4128742;28;20117;-66
2022/05/30 02:22:00;;;;;;;6.60;1.40;;;13.20;99.90;;;;;;4120979;28;20042;-66
2022/05/30 02:24:02;;;;;;;2.67;1.23;;;13.30;99.90;;;;;;4128704;28;20058;-66
2022/05/30 02:26:03;;;;;;;4.57;1.43;;;13.30;99.90;;;;;;4127981;28;20027;-66
2022/05/30 02:28:03;;;;;;;3.38;1.33;;;13.30;99.90;;;;;;4121442;28;20073;-66
2022/05/30 02:30:05;;;;;;;3.10;1.10;;;13.30;99.90;;;;;;4128401;28;20080;-66
2022/05/30 02:32:06;;;;;;;3.88;1.25;;;13.30;99.90;;;;;;4126660;28;20111;-66
2022/05/30 02:36:41;;;;;;;3.05;1.27;;;13.30;99.90;;;;;;4127582;28;20062;-66
2022/05/30 02:38:42;;;;;;;3.00;1.20;;;13.20;99.90;;;;;;4122400;28;20030;-66
2022/05/30 02:40:42;;;;;;;8.32;1.83;;;13.20;99.90;;;;;;4126638;28;20403;-66
2022/05/30 02:42:44;;;;;;;7.32;1.85;;;13.20;99.90;;;;;;4128340;28;20492;-66
2022/05/30 02:44:45;;;;;;;7.97;1.85;;;13.20;99.90;;;;;;4128970;28;20084;-66
2022/05/30 02:46:47;;;;;;;4.82;1.10;;;13.20;99.90;;;;;;4121081;28;20034;-66
2022/05/30 02:48:47;;;;;;;10.27;1.63;;;13.20;99.90;;;;;;4128230;28;20088;-66
2022/05/30 02:50:48;;;;;;;5.03;1.50;;;13.10;99.90;;;;;;4116515;28;20038;-67
2022/05/30 02:52:48;;;;;;;3.75;1.63;;;13.10;99.90;;;;;;4128693;28;20392;-67
2022/05/30 02:54:49;;;;;;;2.20;1.10;;;13.10;99.90;;;;;;4126628;28;20026;-67
2022/05/30 02:56:55;;;;;;;5.53;1.73;;;13.10;99.90;;;;;;4127926;28;20515;-67
2022/05/30 02:59:00;;;;;;;5.78;1.30;;;13.10;99.90;;;;;;4128952;28;20034;-67
2022/05/30 03:01:01;;;;;;;3.63;1.23;;;13.10;99.90;;;;;;4127806;28;20393;-67
2022/05/30 03:03:02;;;;;;;4.35;1.38;;;13.10;99.90;;;;;;4128398;28;20026;-67
2022/05/30 03:05:03;;;;;;;5.55;1.38;;;13.10;99.90;;;;;;4126493;28;20042;-67
2022/05/30 03:07:04;;;;;;;5.35;1.50;;;13.10;99.90;;;;;;4127983;28;20027;-67
2022/05/30 03:09:05;;;;;;;5.75;1.50;;;13.10;99.90;;;;;;4128574;28;20026;-67
2022/05/30 03:11:06;;;;;;;5.03;1.20;;;13.10;99.90;;;;;;4126008;28;20519;-67
2022/05/30 03:13:07;;;;;;;5.22;1.50;;;13.10;99.90;;;;;;4128444;28;20407;-67
2022/05/30 03:15:08;;;;;;;3.88;1.50;;;13.10;99.90;;;;;;4127926;28;20042;-67
2022/05/30 03:17:09;;;;;;;6.82;1.80;;;13.10;99.90;;;;;;4128345;28;20034;-67
2022/05/30 03:19:10;;;;;;;3.35;1.38;;;13.00;99.90;;;;;;4127981;28;20036;-67
2022/05/30 03:21:10;;;;;;;5.30;1.48;;;13.00;99.90;;;;;;4127803;28;20487;-67
2022/05/30 03:23:11;;;;;;;7.40;1.60;;;13.00;99.90;;;;;;4128054;28;20038;-67
2022/05/30 03:25:12;;;;;;;2.15;1.23;;;13.00;99.90;;;;;;4127559;28;20110;-67
2022/05/30 03:27:12;;;;;;;6.30;1.63;;;13.00;99.90;;;;;;4128273;28;20035;-67
2022/05/30 03:29:13;;;;;;;5.30;1.08;;;13.00;99.90;;;;;;4128317;28;20041;-67
2022/05/30 03:31:14;;;;;;;6.65;1.38;;;13.00;99.90;;;;;;4127574;28;20038;-67
2022/05/30 03:33:15;;;;;;;8.73;1.90;;;13.00;99.90;;;;;;4124610;28;20134;-67
2022/05/30 03:35:16;;;;;;;5.82;1.67;;;13.00;99.90;;;;;;4139989;28;20398;-67
2022/05/30 03:37:16;;;;;;;6.32;1.73;;;12.90;99.90;;;;;;4128249;28;20027;-67
2022/05/30 03:39:17;;;;;;;5.70;1.50;;;12.90;99.90;;;;;;4127865;28;20026;-67
2022/05/30 03:41:17;;;;;;;3.20;0.98;;;13.00;99.90;;;;;;4126438;28;20085;-67
2022/05/30 03:43:18;;;;;;;3.55;1.13;;;12.90;99.90;;;;;;4126157;28;20497;-67
2022/05/30 03:45:19;;;;;;;4.78;1.33;;;13.00;99.90;;;;;;4127192;28;20043;-67
2022/05/30 03:47:20;;;;;;;3.60;1.27;;;12.90;99.90;;;;;;4128230;28;20458;-67
2022/05/30 03:49:20;;;;;;;5.30;1.40;;;12.90;99.90;;;;;;4110517;28;20066;-67
2022/05/30 03:51:21;;;;;;;4.93;1.33;;;12.90;99.90;;;;;;4127185;28;20526;-67
2022/05/30 03:53:21;;;;;;;4.68;1.35;;;13.00;99.90;;;;;;4128214;28;20054;-67
2022/05/30 03:55:23;;;;;;;5.63;1.42;;;13.00;99.90;;;;;;4127928;28;20392;-67
2022/05/30 03:57:23;;;;;;;4.43;1.63;;;13.00;99.90;;;;;;4131026;28;20407;-67
2022/05/30 03:59:24;;;;;;;3.70;1.05;;;12.90;99.90;;;;;;4129262;28;20030;-67
2022/05/30 04:01:24;;;;;;;7.30;1.80;;;12.90;99.90;;;;;;4129625;28;20391;-67
2022/05/30 04:03:25;;;;;;;8.70;1.90;;;12.90;99.90;;;;;;4129981;28;20547;-67
2022/05/30 04:05:26;;;;;;;3.88;1.52;;;13.00;99.90;;;;;;4127867;28;20074;-67
2022/05/30 04:07:27;;;;;;;5.07;1.80;;;12.90;99.90;;;;;;4127037;28;20045;-67
2022/05/30 04:09:27;;;;;;;4.75;1.75;;;12.90;99.90;;;;;;4122616;28;20043;-67
2022/05/30 04:11:28;;;;;;;5.03;1.73;;;13.00;99.90;;;;;;4124627;28;20045;-67
2022/05/30 04:13:29;;;;;;;6.57;2.10;;;12.90;99.90;;;;;;4125029;28;20042;-67
2022/05/30 04:15:30;;;;;;;5.18;1.83;;;13.00;99.90;;;;;;4128708;28;20046;-67
2022/05/30 04:17:33;;;;;;;3.80;1.63;;;13.00;99.90;;;;;;4130401;28;20034;-67
2022/05/30 04:19:34;;;;;;;7.55;1.88;;;13.00;99.90;;;;;;4127149;28;20073;-67
2022/05/30 04:21:35;;;;;;;6.45;1.73;;;13.00;99.90;;;;;;4120794;28;20038;-67
2022/05/30 04:23:37;;;;;;;5.07;1.77;;;13.00;99.90;;;;;;4130258;28;20045;-67
2022/05/30 04:25:38;;;;;;;5.43;1.45;;;13.00;99.90;;;;;;4128272;28;20038;-67
2022/05/30 04:27:39;;;;;;;4.82;1.63;;;13.00;99.90;;;;;;4126027;28;20042;-67
2022/05/30 04:29:39;;;;;;;4.32;1.50;;;13.00;99.90;;;;;;4127671;28;20033;-67
2022/05/30 04:31:40;;;;;;;4.13;1.13;;;13.00;99.90;;;;;;4124985;28;20050;-67
2022/05/30 04:33:41;;;;;;;5.70;1.45;;;13.00;99.90;;;;;;4129862;28;20476;-67
2022/05/30 04:35:43;;;;;;;7.32;1.52;;;13.00;99.90;;;;;;4129289;28;20062;-67
2022/05/30 04:37:46;;;;;;;6.05;1.80;;;13.00;99.90;;;;;;4141248;28;20026;-67
2022/05/30 04:39:46;;;;;;;;;;;13.10;99.90;;;;;;4131644;28;20404;-67
2022/05/30 04:41:47;;;;;;;8.45;1.75;;;13.10;99.90;;;;;;4128830;28;19917;-67
2022/05/30 04:43:47;;;;;;;5.47;1.58;;;13.00;99.90;;;;;;4130041;28;20040;-67
2022/05/30 04:46:02;;;;;;;5.55;1.50;;;13.00;99.90;;;;;;4127651;28;20506;-67
2022/05/30 04:48:03;;;;;;;9.52;2.47;;;13.00;99.90;;;;;;4130052;28;20030;-67
2022/05/30 04:50:04;;;;;;;5.28;1.60;;;13.10;99.90;;;;;;4125427;28;20034;-67
2022/05/30 04:52:06;;;;;;;6.55;1.75;;;13.00;99.90;;;;;;4127292;28;20034;-67
2022/05/30 04:54:07;;;;;;;8.75;1.90;;;13.10;99.90;;;;;;4125672;28;20037;-68
2022/05/30 04:56:08;;;;;;;8.18;1.88;;;13.10;99.90;;;;;;4128644;28;20448;-67
2022/05/30 04:58:08;;;;;;;5.13;1.67;;;13.10;99.90;;;;;;4128507;28;20042;-67
2022/05/30 05:00:12;;;;;;;5.75;2.15;;;13.10;99.90;;;;;;4129649;28;20044;-66
2022/05/30 05:02:14;;;;;;;5.45;1.65;;;13.10;99.90;;;;;;4129257;28;20415;-65
2022/05/30 05:04:15;;;;;;;6.32;2.08;;;13.20;99.90;;;;;;4128390;28;20056;-66
2022/05/30 05:06:18;;;;;;;6.55;1.73;;;13.10;99.90;;;;;;4142106;28;20040;-65
2022/05/30 05:08:18;;;;;;;5.40;1.92;;;13.20;99.90;;;;;;4142314;28;20054;-66
2022/05/30 05:10:44;;;;;;;7.15;1.95;;;13.20;99.90;;;;;;4126491;28;20046;-66
2022/05/30 05:12:45;;;;;;;13.93;2.72;;;13.10;99.90;;;;;;4139017;28;20105;-65
2022/05/30 05:14:46;;;;;;;11.95;2.38;;;13.10;99.90;;;;;;4124176;28;20034;-66
2022/05/30 05:16:47;;;;;;;7.80;2.20;;;13.10;99.90;;;;;;4124972;28;20026;-65
2022/05/30 05:18:48;;;;;;;7.38;2.30;;;13.10;99.90;;;;;;4117728;28;20117;-65
2022/05/30 05:20:49;;;;;;;6.65;2.17;;;13.10;99.90;;;;;;4126359;28;20073;-65
2022/05/30 05:22:51;;;;;;;6.93;1.95;;;13.10;99.90;;;;;;4118342;28;20426;-66
2022/05/30 05:24:52;;;;;;;10.48;2.60;;;13.20;99.90;;;;;;4125675;28;20038;-65
2022/05/30 05:26:52;;;;;;;9.98;2.40;;;13.20;99.90;;;;;;4122616;28;20495;-65
2022/05/30 05:28:55;;;;;;;7.43;2.38;;;13.20;99.90;;;;;;4139175;28;20034;-66
2022/05/30 05:30:57;;;;;;;9.32;2.78;;;13.20;99.90;;;;;;4122006;28;20047;-66
2022/05/30 05:32:57;;;;;;;7.30;2.20;;;13.20;99.90;;;;;;4124951;28;20046;-65
2022/05/30 05:34:58;;;;;;;7.97;2.33;;;13.20;99.90;;;;;;4123671;28;20042;-65
2022/05/30 05:36:58;;;;;;;6.00;1.98;;;13.20;99.90;;;;;;4123399;28;20034;-65
2022/05/30 05:38:59;;;;;;;6.93;1.83;;;13.20;99.90;;;;;;4123403;28;20053;-66
2022/05/30 05:41:00;;;;;;;6.53;2.00;;;13.20;99.90;;;;;;4124362;28;20038;-66
2022/05/30 05:43:01;;;;;;;12.23;2.90;;;13.20;99.90;;;;;;4125138;28;20377;-66
2022/05/30 05:45:02;;;;;;;5.30;1.77;;;13.30;99.90;;;;;;4124833;28;20042;-65
2022/05/30 05:47:03;;;;;;;5.13;1.67;;;13.30;99.90;;;;;;4123960;28;20050;-65
2022/05/30 05:49:06;;;;;;;4.82;1.73;;;13.30;99.90;;;;;;4122458;28;20583;-65
2022/05/30 05:51:06;;;;;;;8.20;2.03;;;13.30;99.90;;;;;;4122362;28;20462;-66
2022/05/30 05:53:08;;;;;;;7.72;1.88;;;13.30;99.90;;;;;;4121936;28;20057;-65
2022/05/30 05:55:09;;;;;;;10.48;2.83;;;13.30;99.90;;;;;;4137764;28;20040;-66
2022/05/30 05:57:10;;;;;;;5.85;1.70;;;13.30;99.90;;;;;;4122136;28;20043;-66
2022/05/30 05:59:10;;;;;;;7.88;2.28;;;13.30;99.90;;;;;;4124044;28;20035;-65
2022/05/30 06:01:33;;;;;;;12.30;2.33;;;13.20;99.90;;;;;;4124623;28;20034;-65
2022/05/30 06:03:33;;;;;;;10.25;2.20;;;13.20;99.90;;;;;;4123645;28;20046;-65
2022/05/30 06:05:34;;;;;;;4.30;1.65;;;13.20;99.90;;;;;;4126140;28;20046;-66
2022/05/30 06:07:36;;;;;;;5.55;1.55;;;13.20;99.90;;;;;;4118604;28;20064;-65
2022/05/30 06:09:38;;;;;;;;;;;13.30;99.90;;;;;;4138076;28;20407;-65
2022/05/30 06:11:38;;;;;;;6.15;1.65;;;13.40;99.90;;;;;;4121691;28;21059;-65
2022/05/30 06:13:41;;;;;;;4.95;1.60;;;13.40;99.90;;;;;;4122407;28;20468;-65
2022/05/30 06:15:42;;;;;;;5.38;1.40;;;13.40;99.90;;;;;;4124256;28;20042;-66
2022/05/30 06:17:44;;;;;;;7.30;1.75;;;13.50;99.90;;;;;;4140795;28;20392;-65
2022/05/30 06:19:46;;;;;;;6.00;2.00;;;13.50;99.90;;;;;;4127118;28;20037;-65
2022/05/30 06:21:47;;;;;;;15.88;2.20;;;13.60;99.90;;;;;;4122531;28;20161;-65
2022/05/30 06:23:48;;;;;;;5.68;1.23;;;13.60;99.90;;;;;;4123297;28;20046;-65
2022/05/30 06:25:48;;;;;;;5.38;1.65;;;13.60;99.90;;;;;;4122535;28;20038;-65
2022/05/30 06:27:49;;;;;;;4.43;1.77;;;13.60;99.90;;;;;;4120193;28;20034;-65
2022/05/30 06:29:51;;;;;;;5.57;1.70;;;13.70;99.90;;;;;;4124424;28;20121;-65
2022/05/30 06:31:51;;;;;;;6.95;1.52;;;13.70;99.90;;;;;;4124529;28;20040;-65
2022/05/30 06:33:55;;;;;;;6.85;2.08;;;13.80;99.90;;;;;;4124849;28;20022;-65
2022/05/30 06:35:56;;;;;;;4.18;1.27;;;13.80;99.90;;;;;;4121004;28;20449;-65
2022/05/30 06:37:57;;;;;;;5.82;1.60;;;13.90;99.90;;;;;;4124184;28;20034;-65
2022/05/30 06:39:57;;;;;;;7.20;1.63;;;13.90;99.90;;;;;;4119806;28;20523;-65
2022/05/30 06:41:58;;;;;;;4.00;1.40;;;13.90;99.90;;;;;;4118454;28;20093;-66
2022/05/30 06:44:04;;;;;;;6.00;1.52;;;14.00;99.90;;;;;;4121534;28;20038;-65
2022/05/30 06:46:06;;;;;;;5.32;1.50;;;14.00;99.90;;;;;;4122806;28;20039;-65
2022/05/30 06:48:06;;;;;;;7.65;1.77;;;13.90;99.90;;;;;;4119641;28;20516;-65
2022/05/30 06:50:08;;;;;;;6.28;1.67;;;14.00;99.90;;;;;;4119558;28;20034;-65
2022/05/30 06:52:09;;;;;;;7.40;2.53;;;14.10;99.90;;;;;;4122230;28;20492;-66
2022/05/30 06:54:10;;;;;;;6.32;2.25;;;14.10;99.90;;;;;;4125356;28;20512;-66
2022/05/30 06:56:12;;;;;;;6.10;2.00;;;14.10;99.90;;;;;;4123704;28;20033;-65
2022/05/30 06:58:13;;;;;;;4.45;1.45;;;14.10;99.90;;;;;;4121938;28;20093;-66
2022/05/30 07:00:15;;;;;;;4.18;1.33;;;14.20;99.90;;;;;;4123748;28;20042;-65
2022/05/30 07:02:16;;;;;;;4.38;1.48;;;14.20;99.90;;;;;;4123917;28;20026;-66
2022/05/30 07:04:16;;;;;;;5.20;1.50;;;14.20;99.90;;;;;;4120657;28;20097;-67
2022/05/30 07:06:19;;;;;;;4.38;1.48;;;14.30;99.90;;;;;;4118592;28;20037;-65
2022/05/30 07:08:21;;;;;;;3.75;1.10;;;14.30;99.90;;;;;;4122049;28;20503;-66
2022/05/30 07:10:24;;;;;;;3.35;1.48;;;14.30;99.90;;;;;;4119773;28;20145;-65
2022/05/30 07:12:24;;;;;;;6.63;1.58;;;14.30;99.90;;;;;;4120865;28;20039;-66
2022/05/30 07:14:25;;;;;;;3.58;1.35;;;14.30;99.90;;;;;;4123838;28;20097;-65
2022/05/30 07:16:25;;;;;;;5.28;1.20;;;14.30;99.90;;;;;;4123264;28;20043;-65
2022/05/30 07:18:26;;;;;;;5.07;1.27;;;14.30;99.90;;;;;;4139336;28;20406;-65
2022/05/30 07:20:28;;;;;;;6.35;1.52;;;14.40;99.90;;;;;;4119149;28;20047;-67
2022/05/30 07:22:29;;;;;;;5.00;1.27;;;14.50;99.90;;;;;;4123902;28;20049;-66
2022/05/30 07:24:30;;;;;;;4.28;1.38;;;14.60;99.90;;;;;;4121609;28;20043;-66
2022/05/30 07:26:31;;;;;;;4.80;1.60;;;14.70;99.90;;;;;;4123601;28;20093;-65
2022/05/30 07:28:31;;;;;;;5.75;1.45;;;14.80;99.90;;;;;;4124686;28;20164;-65
2022/05/30 07:30:35;;;;;;;4.15;1.30;;;14.90;99.90;;;;;;4126206;28;20082;-66
2022/05/30 07:32:35;;;;;;;3.90;1.17;;;15.00;99.90;;;;;;4126952;28;20042;-66
2022/05/30 07:34:39;;;;;;;6.03;1.30;;;15.10;99.90;;;;;;4124588;28;20039;-66
2022/05/30 07:36:39;;;;;;;4.80;1.38;;;15.10;99.90;;;;;;4126666;28;20049;-65
2022/05/30 07:38:41;;;;;;;4.82;1.40;;;15.20;99.90;;;;;;4126689;28;20468;-66
2022/05/30 07:40:43;;;;;;;4.88;1.25;;;15.20;99.90;;;;;;4127129;28;20475;-66
2022/05/30 07:42:43;;;;;;;3.55;1.23;;;15.40;99.90;;;;;;4125839;28;20038;-65
2022/05/30 07:44:44;;;;;;;3.30;1.25;;;15.40;99.90;;;;;;4130631;28;20069;-66
2022/05/30 07:46:45;;;;;;;4.28;1.38;;;15.50;99.90;;;;;;4125444;28;20061;-67
2022/05/30 07:48:47;;;;;;;6.47;1.35;;;15.70;99.90;;;;;;4126977;28;20125;-67
2022/05/30 07:50:48;;;;;;;2.60;1.10;;;15.70;99.90;;;;;;4124825;28;20030;-67
2022/05/30 07:52:48;;;;;;;4.75;1.20;;;15.70;99.90;;;;;;4127908;28;20072;-66
2022/05/30 07:54:49;;;;;;;2.63;0.98;;;15.80;99.90;;;;;;4125920;28;20038;-67
2022/05/30 07:56:50;;;;;;;5.18;1.33;;;15.90;99.90;;;;;;4132925;28;20156;-67
2022/05/30 07:58:50;;;;;;;3.42;1.05;;;16.00;98.30;;;;;;4129482;28;20145;-67
2022/05/30 08:00:55;;;;;;;3.85;1.30;;;16.10;99.90;;;;;;4125505;28;20042;-66
2022/05/30 08:02:55;;;;;;;2.55;1.10;;;16.10;99.90;;;;;;4126705;28;21981;-67
2022/05/30 08:04:56;;;;;;;3.60;1.20;;;16.30;97.80;;;;;;4125633;28;20031;-67
2022/05/30 08:06:56;;;;;;;4.53;1.33;;;16.30;98.50;;;;;;4124538;28;20038;-67
2022/05/30 08:08:57;;;;;;;2.10;1.00;;;16.30;99.90;;;;;;4122925;28;20041;-66
2022/05/30 08:10:57;;;;;;;4.63;1.25;;;16.50;99.90;;;;;;4111920;28;20395;-67
2022/05/30 08:12:58;;;;;;;4.63;1.10;;;16.70;99.90;;;;;;4114972;28;20053;-67
2022/05/30 08:14:59;;;;;;;2.33;0.75;;;16.80;99.90;;;;;;4111490;28;20448;-67
2022/05/30 08:17:01;;;;;;;3.25;1.13;;;17.00;98.20;;;;;;4117436;28;20542;-67
2022/05/30 08:19:01;;;;;;;2.33;0.98;;;17.00;95.60;;;;;;4123736;28;20031;-67
2022/05/30 08:21:03;;;;;;;2.05;0.70;;;17.20;96.50;;;;;;4123343;28;20038;-67
2022/05/30 08:23:04;;;;;;;3.28;1.10;;;17.20;97.70;;;;;;4123420;28;20109;-67
2022/05/30 08:25:08;;;;;;;3.33;1.00;;;17.40;99.40;;;;;;4121502;28;20046;-67
2022/05/30 08:27:10;;;;;;;3.42;0.90;;;17.50;96.70;;;;;;4108154;28;20035;-67
2022/05/30 08:29:10;;;;;;;2.00;0.77;;;17.60;95.80;;;;;;4123796;28;20048;-67
2022/05/30 08:31:11;;;;;;;4.13;1.00;;;17.60;93.80;;;;;;4124345;28;20129;-67
2022/05/30 08:33:13;;;;;;;2.70;1.00;;;17.60;93.70;;;;;;4122961;28;20066;-67
2022/05/30 08:35:17;;;;;;;1.73;0.70;;;17.70;93.80;;;;;;4123533;28;20035;-67
2022/05/30 08:37:18;;;;;;;1.98;0.80;;;17.70;94.90;;;;;;4123515;28;20050;-67
2022/05/30 08:41:47;;;;;;;1.60;0.68;;;18.00;95.30;;;;;;4122908;28;20031;-67
2022/05/30 08:43:50;;;;;;;1.73;0.60;;;18.00;94.20;;;;;;4140740;28;20061;-68
2022/05/30 08:46:05;;;;;;;2.15;0.73;;;18.10;92.30;;;;;;4123352;28;20141;-68
2022/05/30 08:48:11;;;;;;;3.20;1.10;;;18.10;90.80;;;;;;4122022;28;20038;-68
2022/05/30 08:50:22;;;;;;;1.35;0.68;;;18.10;91.30;;;;;;4121922;28;20446;-68
2022/05/30 08:52:36;;;;;;;3.28;0.90;;;18.00;91.80;;;;;;4121731;28;20113;-68
2022/05/30 08:54:51;;;;;;;4.18;1.13;;;18.00;93.30;;;;;;4124225;28;20437;-68
2022/05/30 08:56:56;;;;;;;1.67;0.73;;;17.80;90.70;;;;;;4121701;28;20104;-68
2022/05/30 08:59:06;;;;;;;6.75;1.20;;;17.80;91.30;;;;;;4124791;28;20041;-69
2022/05/30 09:01:17;;;;;;;1.75;0.63;;;17.60;89.40;;;;;;4121473;28;20377;-68
2022/05/30 09:03:41;;;;;;;1.88;0.80;;;17.60;90.90;;;;;;4124034;28;20048;-68
2022/05/30 09:05:46;;;;;;;3.13;1.05;;;17.50;90.90;;;;;;4122920;28;20038;-68
2022/05/30 09:07:52;;;;;;;3.13;1.02;;;17.50;91.30;;;;;;4125995;28;20069;-67
2022/05/30 09:10:02;;;;;;;1.75;0.70;;;17.50;90.30;;;;;;4139828;28;20034;-67
2022/05/30 09:12:16;;;;;;;2.67;0.85;;;17.40;90.10;;;;;;4123319;28;20034;-67
2022/05/30 09:14:38;;;;;;;2.15;0.88;;;17.40;86.30;;;;;;4139464;28;20403;-67
2022/05/30 09:16:44;;;;;;;2.95;1.05;;;17.40;85.40;;;;;;4121863;28;20030;-68
2022/05/30 09:18:48;;;;;;;1.48;0.73;;;17.30;90.00;;;;;;4124734;28;20057;-68
2022/05/30 09:20:49;;;;;;;2.95;0.95;;;17.30;90.00;;;;;;4124072;28;20046;-68
2022/05/30 09:22:51;;;;;;;5.28;1.20;;;17.40;94.40;;;;;;4140534;28;20034;-68
2022/05/30 09:27:12;;;;;;;5.70;1.23;;;17.40;96.00;;;;;;4122417;28;20719;-67
2022/05/30 09:29:23;;;;;;;3.83;1.17;;;17.40;95.60;;;;;;4125539;28;20037;-68
2022/05/30 09:31:31;;;;;;;6.47;1.52;;;17.30;96.60;;;;;;4125747;28;20407;-68
2022/05/30 09:33:38;;;;;;;3.92;1.20;;;17.30;96.30;;;;;;4121233;28;20046;-68
2022/05/30 09:35:41;;;;;;;4.70;1.35;;;17.20;97.50;;;;;;4121145;28;20030;-68
2022/05/30 09:37:41;;;;;;;;;;;17.10;97.50;;;;;;4123505;28;20038;-67
2022/05/30 09:39:45;;;;;;;3.42;1.15;;;17.00;96.50;;;;;;4125550;28;19921;-68
2022/05/30 09:41:53;;;;;;;3.95;0.98;;;17.00;97.40;;;;;;4123862;28;20038;-68
2022/05/30 09:43:58;;;;;;;3.95;1.30;;;17.00;97.80;;;;;;4122741;28;20069;-68
2022/05/30 09:46:35;;;;;;;3.58;1.10;;;17.00;97.80;;;;;;4121960;28;20102;-68
2022/05/30 09:48:36;;;;;;;3.03;1.05;;;17.00;96.80;;;;;;4121481;28;20042;-67
2022/05/30 09:50:46;;;;;;;3.53;1.13;;;17.00;96.20;;;;;;4123178;28;20035;-67
2022/05/30 09:52:47;;;;;;;4.57;1.17;;;17.00;97.30;;;;;;4121988;28;20062;-68
2022/05/30 09:54:47;;;;;;;2.97;1.10;;;17.00;95.00;;;;;;4122358;28;20597;-68
2022/05/30 09:56:49;;;;;;;2.78;1.00;;;17.00;95.30;;;;;;4140709;28;20690;-67
2022/05/30 09:59:31;;;;;;;5.53;1.25;;;17.00;96.30;;;;;;4120520;28;20181;-68
2022/05/30 10:01:35;;;;;;;4.00;1.23;;;17.00;98.10;;;;;;4122512;28;20137;-67
2022/05/30 10:03:41;;;;;;;2.10;0.77;;;17.10;99.40;;;;;;4122449;28;20062;-67
2022/05/30 10:05:42;;;;;;;3.78;1.20;;;17.10;96.10;;;;;;4119488;28;20108;-68
2022/05/30 10:07:52;;;;;;;5.20;1.25;;;17.10;98.10;;;;;;4120530;28;20396;-67
2022/05/30 10:09:57;;;;;;;2.78;1.00;;;17.10;97.80;;;;;;4120368;28;20468;-67
2022/05/30 10:11:59;;;;;;;2.85;1.02;;;17.10;96.40;;;;;;4123948;28;20026;-67
2022/05/30 10:14:15;;;;;;;4.90;1.20;;;17.20;97.00;;;;;;4123370;28;20105;-67
2022/05/30 10:16:35;;;;;;;3.78;1.20;;;17.30;97.60;;;;;;4120032;28;20035;-67
2022/05/30 10:18:43;;;;;;;2.58;0.80;;;17.30;92.50;;;;;;4122286;28;20508;-68
2022/05/30 10:21:06;;;;;;;1.48;0.65;;;17.40;93.50;;;;;;4119944;28;20026;-68
2022/05/30 10:29:06;;;;;;;2.90;0.95;;;17.30;89.00;;;;;;4124494;28;20033;-68
2022/05/30 10:31:54;;;;;;;1.75;0.70;;;17.30;92.70;;;;;;4121769;28;20491;-68
2022/05/30 10:34:09;;;;;;;3.75;0.98;;;17.40;93.00;;;;;;4099013;28;20050;-67
2022/05/30 10:36:38;;;;;;;3.85;1.20;;;17.40;92.00;;;;;;4120663;28;20115;-68
2022/05/30 10:39:13;;;;;;;2.22;0.85;;;17.50;92.30;;;;;;4121805;28;20038;-68
2022/05/30 10:41:35;;;;;;;2.33;0.93;;;17.40;94.30;;;;;;4132813;28;20051;-68
2022/05/30 10:43:51;;;;;;;4.13;1.13;;;17.40;92.50;;;;;;4121719;28;20298;-68
2022/05/30 10:46:05;;;;;;;3.17;1.10;;;17.40;92.50;;;;;;4119942;28;20169;-68
2022/05/30 10:48:09;;;;;;;5.10;1.00;;;17.40;94.10;;;;;;4121933;28;20423;-67
2022/05/30 10:50:15;;;;;;;1.75;0.82;;;17.40;92.40;;;;;;4122206;28;20085;-68
2022/05/30 10:52:29;;;;;;;3.10;0.90;;;17.30;92.40;;;;;;4120323;28;20069;-68
2022/05/30 10:54:37;;;;;;;2.53;0.90;;;17.40;93.70;;;;;;4120252;28;20173;-68
2022/05/30 10:56:41;;;;;;;3.83;1.20;;;17.40;92.80;;;;;;4119938;28;20508;-68
2022/05/30 10:58:57;;;;;;;2.65;0.95;;;17.40;92.30;;;;;;4120129;28;20046;-68
2022/05/30 11:01:21;;;;;;;4.80;0.98;;;17.30;92.60;;;;;;4122601;28;20047;-68
2022/05/30 11:03:46;;;;;;;5.32;1.05;;;17.40;92.00;;;;;;4121539;28;20399;-68
2022/05/30 11:06:27;;;;;;;2.30;1.08;;;17.40;95.80;;;;;;4137553;28;20034;-67